Time;durP1;ratioP1;P1;durP2;ratioP2;P2;SDS_P1;SDS_P2;PMS_P1;PMS_P2;Temp;Humidity;BMP_temperature;BMP_pressure;BME280_temperature;BME280_humidity;BME280_pressure;Samples;Min_cycle;Max_cycle;Signal;HPM_P1;HPM_P2
2023/12/21 00:01:33;;;;;;;10.18;2.60;;;;;;;;;;9836148;29;20058;-68
2023/12/21 00:06:30;;;;;;;10.95;2.90;;;;;;;;;;9825139;29;20054;-69
2023/12/21 00:11:26;;;;;;;15.90;2.95;;;;;;;;;;9834569;29;20109;-70
2023/12/21 00:16:23;;;;;;;14.68;2.92;;;;;;;;;;9836276;29;20050;-70
2023/12/21 00:21:19;;;;;;;19.08;4.03;;;;;;;;;;9836576;29;20076;-67
2023/12/21 00:26:15;;;;;;;27.38;4.47;;;;;;;;;;9803290;29;20145;-68
2023/12/21 00:31:12;;;;;;;15.25;3.72;;;;;;;;;;9828226;29;20069;-68
2023/12/21 00:36:14;;;;;;;16.88;3.92;;;;;;;;;;9835808;29;20534;-68
2023/12/21 00:41:10;;;;;;;13.10;3.78;;;;;;;;;;9837937;29;20129;-69
2023/12/21 00:46:07;;;;;;;16.63;4.97;;;;;;;;;;9830164;29;20519;-69
2023/12/21 00:51:03;;;;;;;13.05;4.18;;;;;;;;;;9820524;29;20046;-70
2023/12/21 00:56:00;;;;;;;16.40;3.83;;;;;;;;;;9835702;29;20054;-69
2023/12/21 01:00:56;;;;;;;22.02;4.35;;;;;;;;;;9830547;29;20435;-68
2023/12/21 01:05:52;;;;;;;20.73;4.43;;;;;;;;;;9833817;29;20061;-68
2023/12/21 01:10:49;;;;;;;15.75;4.85;;;;;;;;;;9831880;29;20435;-68
2023/12/21 01:15:45;;;;;;;15.30;4.47;;;;;;;;;;9837753;29;20138;-69
2023/12/21 01:20:41;;;;;;;18.70;4.65;;;;;;;;;;9831129;29;20130;-69
2023/12/21 01:25:38;;;;;;;15.75;4.60;;;;;;;;;;9830148;29;20053;-69
2023/12/21 01:30:34;;;;;;;11.52;3.47;;;;;;;;;;9837700;29;20061;-69
2023/12/21 01:35:30;;;;;;;13.52;4.20;;;;;;;;;;9846309;29;20136;-69
2023/12/21 01:40:27;;;;;;;13.18;4.07;;;;;;;;;;9850057;29;20135;-69
2023/12/21 01:45:23;;;;;;;12.52;4.18;;;;;;;;;;9842719;29;20061;-70
2023/12/21 01:50:20;;;;;;;8.00;3.47;;;;;;;;;;9842164;29;20062;-69
2023/12/21 01:55:16;;;;;;;13.50;3.80;;;;;;;;;;9836136;29;20063;-70
2023/12/21 02:00:13;;;;;;;16.83;4.25;;;;;;;;;;9832694;29;20107;-70
2023/12/21 02:05:10;;;;;;;13.23;3.65;;;;;;;;;;9838105;29;20058;-70
2023/12/21 02:10:06;;;;;;;12.05;3.83;;;;;;;;;;9835873;29;20154;-69
2023/12/21 02:15:03;;;;;;;10.10;4.38;;;;;;;;;;9835976;29;20050;-70
2023/12/21 02:19:59;;;;;;;14.57;4.07;;;;;;;;;;9840501;29;20054;-71
2023/12/21 02:24:56;;;;;;;9.98;3.75;;;;;;;;;;9834124;29;20439;-70
2023/12/21 02:29:52;;;;;;;13.40;4.00;;;;;;;;;;9827194;29;20062;-70
2023/12/21 02:34:49;;;;;;;13.25;3.28;;;;;;;;;;9835742;29;20085;-70
2023/12/21 02:39:45;;;;;;;13.57;3.67;;;;;;;;;;9839345;29;20593;-70
2023/12/21 02:44:42;;;;;;;7.18;3.50;;;;;;;;;;9840618;29;20114;-70
2023/12/21 02:49:38;;;;;;;13.75;4.35;;;;;;;;;;9824269;29;20086;-69
2023/12/21 02:54:34;;;;;;;17.80;3.80;;;;;;;;;;9838667;29;20073;-70
2023/12/21 02:59:31;;;;;;;10.82;4.15;;;;;;;;;;9837552;29;20590;-70
2023/12/21 03:04:27;;;;;;;20.42;4.60;;;;;;;;;;9835370;29;20503;-71
2023/12/21 03:09:23;;;;;;;22.92;5.35;;;;;;;;;;9835352;29;20620;-69
2023/12/21 03:14:22;;;;;;;18.90;4.80;;;;;;;;;;9839641;29;20061;-69
2023/12/21 03:19:19;;;;;;;15.25;4.50;;;;;;;;;;9833087;29;20057;-70
2023/12/21 03:24:15;;;;;;;17.85;4.93;;;;;;;;;;9841769;29;20534;-70
2023/12/21 03:29:11;;;;;;;17.73;5.45;;;;;;;;;;9835626;29;20111;-69
2023/12/21 03:34:08;;;;;;;17.88;4.85;;;;;;;;;;9825816;29;20150;-69
2023/12/21 03:39:04;;;;;;;21.38;5.40;;;;;;;;;;9835240;29;20418;-70
2023/12/21 03:44:00;;;;;;;16.20;5.47;;;;;;;;;;9833622;29;20091;-68
2023/12/21 03:48:57;;;;;;;18.58;6.18;;;;;;;;;;9831619;29;20095;-69
2023/12/21 03:53:53;;;;;;;27.42;7.10;;;;;;;;;;9838594;29;20173;-70
2023/12/21 03:58:50;;;;;;;15.02;4.40;;;;;;;;;;9840161;29;20591;-71
2023/12/21 04:03:46;;;;;;;9.57;3.88;;;;;;;;;;9841766;29;20130;-70
2023/12/21 04:08:42;;;;;;;14.30;3.72;;;;;;;;;;9838398;29;20158;-71
2023/12/21 04:13:39;;;;;;;12.05;5.22;;;;;;;;;;9825138;29;20081;-70
2023/12/21 04:18:36;;;;;;;16.05;3.85;;;;;;;;;;9827541;29;20443;-70
2023/12/21 04:23:32;;;;;;;12.90;3.75;;;;;;;;;;9806648;29;20085;-69
2023/12/21 04:28:29;;;;;;;14.70;3.83;;;;;;;;;;9834579;29;20523;-69
2023/12/21 04:33:25;;;;;;;11.82;3.03;;;;;;;;;;9835647;29;20050;-68
2023/12/21 04:38:22;;;;;;;9.10;3.17;;;;;;;;;;9828022;29;20640;-69
2023/12/21 04:43:18;;;;;;;9.45;3.50;;;;;;;;;;9841015;29;20049;-69
2023/12/21 04:48:14;;;;;;;10.15;3.45;;;;;;;;;;9837559;29;20480;-69
2023/12/21 04:53:11;;;;;;;10.02;3.78;;;;;;;;;;9826303;29;20069;-69
2023/12/21 04:58:07;;;;;;;9.02;3.70;;;;;;;;;;9839304;29;20081;-69
2023/12/21 05:03:04;;;;;;;4.53;3.08;;;;;;;;;;9838835;29;20081;-67
2023/12/21 05:08:00;;;;;;;5.20;3.13;;;;;;;;;;9832787;29;20664;-68
2023/12/21 05:12:56;;;;;;;6.68;3.22;;;;;;;;;;9825441;29;20058;-70
2023/12/21 05:17:53;;;;;;;8.18;4.22;;;;;;;;;;9807692;29;20058;-69
2023/12/21 05:22:50;;;;;;;7.68;3.30;;;;;;;;;;9858987;23;20057;-70
2023/12/21 05:27:47;;;;;;;7.78;3.63;;;;;;;;;;9850456;29;20061;-70
2023/12/21 05:32:43;;;;;;;3.40;2.80;;;;;;;;;;9860810;29;20061;-75
2023/12/21 05:37:41;;;;;;;4.00;3.20;;;;;;;;;;9819693;29;20050;-73
2023/12/21 05:47:49;;;;;;;5.27;3.33;;;;;;;;;;4620191;27;20077;-74
2023/12/21 05:52:46;;;;;;;4.47;3.40;;;;;;;;;;9858644;29;20049;-72
2023/12/21 05:57:43;;;;;;;3.33;3.03;;;;;;;;;;9836926;29;20058;-75
2023/12/21 06:02:40;;;;;;;4.88;3.50;;;;;;;;;;9835310;29;20141;-73
2023/12/21 06:07:36;;;;;;;5.68;2.63;;;;;;;;;;9842373;29;20057;-75
2023/12/21 06:12:33;;;;;;;4.20;2.90;;;;;;;;;;9836352;29;20197;-78
2023/12/21 06:17:29;;;;;;;3.47;2.80;;;;;;;;;;9843335;29;20107;-77
2023/12/21 06:44:57;;;;;;;5.95;5.18;;;;;;;;;;9811249;29;20042;-78
2023/12/21 06:49:54;;;;;;;6.63;4.13;;;;;;;;;;9874914;29;20157;-76
2023/12/21 06:54:50;;;;;;;4.45;3.65;;;;;;;;;;9875159;29;20106;-78
2023/12/21 06:59:46;;;;;;;4.00;3.30;;;;;;;;;;9871096;29;20471;-77
2023/12/21 07:04:44;;;;;;;4.28;3.10;;;;;;;;;;9878184;29;20087;-78
2023/12/21 07:09:41;;;;;;;4.45;2.95;;;;;;;;;;9883271;29;20103;-78
2023/12/21 07:14:38;;;;;;;4.90;3.80;;;;;;;;;;9877919;29;20132;-77
2023/12/21 07:19:37;;;;;;;3.50;3.20;;;;;;;;;;9879948;29;20106;-77
2023/12/21 07:24:33;;;;;;;3.65;3.33;;;;;;;;;;9869488;29;20570;-79
2023/12/21 07:29:30;;;;;;;6.32;3.50;;;;;;;;;;9873946;29;20054;-76
2023/12/21 07:34:28;;;;;;;3.85;2.92;;;;;;;;;;9860804;29;20081;-76
2023/12/21 07:39:24;;;;;;;3.83;3.20;;;;;;;;;;9871473;29;20136;-77
2023/12/21 07:44:21;;;;;;;4.30;3.30;;;;;;;;;;9873275;29;20085;-78
2023/12/21 07:49:17;;;;;;;4.47;3.03;;;;;;;;;;9878830;29;20068;-78
2023/12/21 07:54:13;;;;;;;3.35;2.97;;;;;;;;;;9877862;29;20049;-80
2023/12/21 07:59:10;;;;;;;3.58;2.92;;;;;;;;;;9864295;29;20061;-79
2023/12/21 08:04:07;;;;;;;6.53;3.05;;;;;;;;;;9864679;29;20561;-79
2023/12/21 08:09:04;;;;;;;3.28;2.58;;;;;;;;;;9863904;29;20052;-80
2023/12/21 08:14:00;;;;;;;3.35;2.78;;;;;;;;;;9862796;29;20102;-79
2023/12/21 08:18:57;;;;;;;5.47;2.80;;;;;;;;;;9867613;29;20068;-79
2023/12/21 08:52:28;;;;;;;3.60;2.60;;;;;;;;;;9866376;29;20129;-79
2023/12/21 08:57:51;;;;;;;2.40;2.20;;;;;;;;;;9859012;29;20061;-77
2023/12/21 09:03:47;;;;;;;3.10;2.80;;;;;;;;;;9634261;30;20761;-79
2023/12/21 09:15:03;;;;;;;3.35;2.60;;;;;;;;;;9873459;29;20041;-77
2023/12/21 09:20:25;;;;;;;4.90;2.80;;;;;;;;;;9859929;29;20057;-80
2023/12/21 09:32:08;;;;;;;4.18;2.70;;;;;;;;;;9848492;29;20073;-79
2023/12/21 09:43:34;;;;;;;;;;;;;;;;;;9793228;29;20550;-79
2023/12/21 10:36:05;;;;;;;2.60;1.83;;;;;;;;;;9915826;23;20077;-78
2023/12/21 12:50:15;;;;;;;12.27;5.20;;;;;;;;;;9693029;29;20491;-75
2023/12/21 13:07:58;;;;;;;11.00;4.95;;;;;;;;;;9615754;30;20053;-77
2023/12/21 13:13:20;;;;;;;19.13;5.30;;;;;;;;;;9751359;29;20050;-75
2023/12/21 13:18:16;;;;;;;21.73;5.20;;;;;;;;;;9832734;29;20088;-76
2023/12/21 13:23:21;;;;;;;10.88;4.85;;;;;;;;;;9864806;23;20139;-74
2023/12/21 13:28:19;;;;;;;12.55;5.43;;;;;;;;;;9897997;29;20413;-74
2023/12/21 13:33:17;;;;;;;7.43;4.38;;;;;;;;;;9875893;29;20525;-75
2023/12/21 13:38:18;;;;;;;7.93;5.13;;;;;;;;;;9869068;29;20053;-73
2023/12/21 13:43:14;;;;;;;10.25;4.72;;;;;;;;;;9869749;29;20069;-73
2023/12/21 13:48:11;;;;;;;10.55;5.90;;;;;;;;;;9875217;29;20057;-74
2023/12/21 13:53:08;;;;;;;15.43;5.80;;;;;;;;;;9851242;29;20102;-76
2023/12/21 13:58:05;;;;;;;17.10;5.90;;;;;;;;;;9862033;29;20106;-74
2023/12/21 14:03:01;;;;;;;19.25;6.40;;;;;;;;;;9863091;29;20077;-74
2023/12/21 14:07:58;;;;;;;25.65;5.45;;;;;;;;;;9864942;29;20109;-74
2023/12/21 14:12:55;;;;;;;24.02;6.70;;;;;;;;;;9881836;29;20429;-74
2023/12/21 14:17:54;;;;;;;17.10;5.93;;;;;;;;;;9866568;29;20066;-74
2023/12/21 14:22:51;;;;;;;27.42;7.15;;;;;;;;;;9846780;29;20114;-74
2023/12/21 14:27:47;;;;;;;31.70;6.85;;;;;;;;;;9856884;29;20148;-73
2023/12/21 14:32:44;;;;;;;23.95;7.00;;;;;;;;;;9864398;29;20444;-76
2023/12/21 14:37:41;;;;;;;20.17;6.95;;;;;;;;;;9881263;29;20053;-74
2023/12/21 14:42:38;;;;;;;28.48;8.07;;;;;;;;;;9870601;29;20057;-74
2023/12/21 14:47:35;;;;;;;14.60;6.20;;;;;;;;;;9874782;29;20117;-74
2023/12/21 14:52:32;;;;;;;21.88;5.85;;;;;;;;;;9875393;29;20409;-74
2023/12/21 14:57:28;;;;;;;23.73;6.18;;;;;;;;;;9878099;29;20106;-74
2023/12/21 15:02:24;;;;;;;10.77;5.32;;;;;;;;;;9889918;29;20057;-74
2023/12/21 15:07:21;;;;;;;22.58;7.45;;;;;;;;;;9873137;29;20462;-74
2023/12/21 15:12:19;;;;;;;19.67;6.97;;;;;;;;;;9860312;29;20058;-74
2023/12/21 15:17:15;;;;;;;26.60;7.50;;;;;;;;;;9877801;29;20049;-74
2023/12/21 15:22:13;;;;;;;32.58;8.07;;;;;;;;;;9889353;29;20060;-75
2023/12/21 15:27:09;;;;;;;18.85;7.60;;;;;;;;;;9862771;29;20069;-74
2023/12/21 15:32:06;;;;;;;23.38;6.95;;;;;;;;;;9849859;29;20054;-74
2023/12/21 15:37:02;;;;;;;24.70;8.20;;;;;;;;;;9877110;29;20062;-73
2023/12/21 15:42:03;;;;;;;20.00;5.78;;;;;;;;;;9908482;23;20057;-73
2023/12/21 15:47:09;;;;;;;21.25;6.53;;;;;;;;;;9894356;29;20743;-75
2023/12/21 16:09:28;;;;;;;32.03;8.77;;;;;;;;;;9851977;29;20395;-73
2023/12/21 16:14:25;;;;;;;41.47;8.30;;;;;;;;;;9843562;29;20089;-75
2023/12/21 16:19:21;;;;;;;34.30;8.60;;;;;;;;;;9834485;29;20141;-75
2023/12/21 16:41:04;;;;;;;19.35;6.88;;;;;;;;;;2390514;23;20076;-73
2023/12/21 16:46:01;;;;;;;21.70;7.88;;;;;;;;;;9864024;29;20049;-74
2023/12/21 16:50:57;;;;;;;11.07;6.03;;;;;;;;;;9871581;29;20046;-74
2023/12/21 16:55:54;;;;;;;24.33;6.90;;;;;;;;;;9863279;29;20062;-73
2023/12/21 17:00:50;;;;;;;14.32;6.72;;;;;;;;;;9873830;29;20514;-74
2023/12/21 17:05:46;;;;;;;13.13;5.75;;;;;;;;;;9856902;29;20069;-73
2023/12/21 17:10:43;;;;;;;31.75;8.02;;;;;;;;;;9851367;29;20053;-72
2023/12/21 17:15:42;;;;;;;20.23;7.63;;;;;;;;;;9867696;29;20061;-71
2023/12/21 17:20:39;;;;;;;24.80;7.40;;;;;;;;;;9871052;29;20065;-73
2023/12/21 17:25:37;;;;;;;30.90;7.07;;;;;;;;;;9851244;29;20046;-73
2023/12/21 17:30:35;;;;;;;29.00;8.02;;;;;;;;;;9863111;29;20057;-72
2023/12/21 17:35:33;;;;;;;25.88;8.68;;;;;;;;;;9865528;29;20096;-74
2023/12/21 17:40:30;;;;;;;29.05;7.68;;;;;;;;;;9869565;29;20507;-74
2023/12/21 18:03:18;;;;;;;;;;;;;;;;;;;;;
2023/12/21 18:43:28;;;;;;;22.13;7.78;;;;;;;;;;9884963;23;20156;-75
2023/12/21 18:48:24;;;;;;;19.45;7.47;;;;;;;;;;9843074;29;20213;-76
2023/12/21 18:53:21;;;;;;;18.45;6.97;;;;;;;;;;9846919;29;20050;-75
2023/12/21 18:58:17;;;;;;;31.38;7.80;;;;;;;;;;9853746;29;20061;-75
2023/12/21 19:03:14;;;;;;;15.07;6.00;;;;;;;;;;9834858;29;20806;-76
2023/12/21 19:08:10;;;;;;;11.82;5.57;;;;;;;;;;9847521;29;20053;-76
2023/12/21 19:13:07;;;;;;;14.20;5.93;;;;;;;;;;9833184;29;20053;-77
2023/12/21 19:18:03;;;;;;;9.07;5.25;;;;;;;;;;9825001;29;20053;-76
2023/12/21 19:23:00;;;;;;;10.45;5.32;;;;;;;;;;9845003;29;20144;-75
2023/12/21 19:27:56;;;;;;;19.85;6.38;;;;;;;;;;9832560;29;20546;-76
2023/12/21 19:32:52;;;;;;;15.80;5.60;;;;;;;;;;9832779;29;20099;-76
2023/12/21 19:37:49;;;;;;;9.13;5.60;;;;;;;;;;9835441;29;20133;-75
2023/12/21 19:42:46;;;;;;;19.00;6.10;;;;;;;;;;9816850;29;20157;-76
2023/12/21 19:47:42;;;;;;;15.05;6.70;;;;;;;;;;9840848;29;20706;-72
2023/12/21 19:52:39;;;;;;;13.50;5.70;;;;;;;;;;9841419;29;20054;-73
2023/12/21 19:57:36;;;;;;;15.38;7.07;;;;;;;;;;9840451;29;20110;-77
2023/12/21 20:02:32;;;;;;;20.15;6.97;;;;;;;;;;9829972;29;20064;-75
2023/12/21 20:07:28;;;;;;;29.15;7.85;;;;;;;;;;9817449;29;20080;-74
2023/12/21 20:12:25;;;;;;;17.83;7.22;;;;;;;;;;9837204;29;20818;-73
2023/12/21 20:17:21;;;;;;;21.23;7.25;;;;;;;;;;9839401;29;20078;-74
2023/12/21 20:22:18;;;;;;;13.48;5.78;;;;;;;;;;9829727;29;20050;-74
2023/12/21 20:27:14;;;;;;;30.30;7.32;;;;;;;;;;9843113;29;20529;-75
2023/12/21 20:32:10;;;;;;;24.35;6.40;;;;;;;;;;9835760;29;20146;-74
2023/12/21 20:37:08;;;;;;;19.05;7.07;;;;;;;;;;9841991;29;20061;-74
2023/12/21 20:42:04;;;;;;;29.38;6.53;;;;;;;;;;9828906;29;20069;-73
2023/12/21 20:47:00;;;;;;;25.55;6.80;;;;;;;;;;9827027;29;20054;-75
2023/12/21 20:51:57;;;;;;;33.25;7.20;;;;;;;;;;9830636;29;20065;-74
2023/12/21 20:56:53;;;;;;;22.92;7.85;;;;;;;;;;9840000;29;20459;-74
2023/12/21 21:01:50;;;;;;;27.38;6.95;;;;;;;;;;9837733;29;20050;-74
2023/12/21 21:06:46;;;;;;;18.77;6.18;;;;;;;;;;9822034;29;20065;-74
2023/12/21 21:11:42;;;;;;;18.95;6.55;;;;;;;;;;9830839;29;20073;-73
2023/12/21 21:16:39;;;;;;;16.67;6.22;;;;;;;;;;9833508;29;20053;-73
2023/12/21 21:21:35;;;;;;;9.05;3.95;;;;;;;;;;9833053;29;20065;-71
2023/12/21 21:26:32;;;;;;;11.80;4.70;;;;;;;;;;9827487;29;20053;-70
2023/12/21 21:31:28;;;;;;;18.80;4.93;;;;;;;;;;9836057;29;20403;-69
2023/12/21 21:36:24;;;;;;;21.00;5.90;;;;;;;;;;9840997;29;20069;-69
2023/12/21 21:41:21;;;;;;;15.88;5.50;;;;;;;;;;9836180;29;20050;-70
2023/12/21 21:46:17;;;;;;;14.20;4.55;;;;;;;;;;9826573;29;20050;-70
2023/12/21 21:51:14;;;;;;;22.77;5.63;;;;;;;;;;9827349;29;20191;-70
2023/12/21 21:56:13;;;;;;;15.82;5.05;;;;;;;;;;9837878;29;20061;-70
2023/12/21 22:01:10;;;;;;;21.42;5.20;;;;;;;;;;9848167;29;20054;-69
2023/12/21 22:06:06;;;;;;;17.75;5.50;;;;;;;;;;9840817;29;20472;-69
2023/12/21 22:11:03;;;;;;;27.20;5.63;;;;;;;;;;9832183;29;20054;-70
2023/12/21 22:16:00;;;;;;;17.50;5.32;;;;;;;;;;9829715;29;20050;-69
2023/12/21 22:20:56;;;;;;;20.55;5.72;;;;;;;;;;9838919;29;20062;-70
2023/12/21 22:25:52;;;;;;;22.70;6.38;;;;;;;;;;9819700;29;20659;-70
2023/12/21 22:30:49;;;;;;;32.60;6.40;;;;;;;;;;9831789;29;20049;-71
2023/12/21 22:35:46;;;;;;;18.48;4.80;;;;;;;;;;9826549;29;20070;-70
2023/12/21 22:40:42;;;;;;;20.02;6.18;;;;;;;;;;9831162;29;20080;-69
2023/12/21 22:45:38;;;;;;;14.18;4.53;;;;;;;;;;9840889;29;20425;-69
2023/12/21 22:50:35;;;;;;;19.27;4.03;;;;;;;;;;9828390;29;20066;-69
2023/12/21 22:55:31;;;;;;;11.10;3.90;;;;;;;;;;9841052;29;20078;-70
2023/12/21 23:00:28;;;;;;;14.88;3.78;;;;;;;;;;9828927;29;20050;-70
2023/12/21 23:05:24;;;;;;;8.07;3.65;;;;;;;;;;9839843;29;20049;-70
2023/12/21 23:10:21;;;;;;;16.05;4.00;;;;;;;;;;9846120;29;20552;-69
2023/12/21 23:15:18;;;;;;;20.35;3.97;;;;;;;;;;9832955;29;20090;-70
2023/12/21 23:20:14;;;;;;;17.35;3.97;;;;;;;;;;9831389;29;20074;-70
2023/12/21 23:25:11;;;;;;;17.83;4.57;;;;;;;;;;9832080;29;20050;-71
2023/12/21 23:30:07;;;;;;;22.95;5.22;;;;;;;;;;9838546;29;20050;-71
2023/12/21 23:35:04;;;;;;;22.55;5.03;;;;;;;;;;9835283;29;20058;-70
2023/12/21 23:40:13;;;;;;;23.00;4.88;;;;;;;;;;9828499;29;20479;-70
2023/12/21 23:45:10;;;;;;;21.50;4.95;;;;;;;;;;9818670;29;20533;-71
2023/12/21 23:50:06;;;;;;;24.15;4.07;;;;;;;;;;9841893;29;20058;-72
2023/12/21 23:55:03;;;;;;;17.63;4.65;;;;;;;;;;9908205;23;20196;-69
2023/12/21 23:59:59;;;;;;;29.70;4.68;;;;;;;;;;9907880;29;20117;-70
